Terminal Aerodrome Forecast
Issued by NWS

Home | Current Version | Previous Version | Text Only | Print | Product List | Glossary On
Versions: 1 2 3 4 5 6 7 8 9 10 11 12 13
000
FTUS42 KTBW 051737
TAFPIE
TAF
KPIE 051737Z 0518/0618 08010KT P6SM FEW030 BKN050
     FM052100 09013G20KT P6SM FEW030 BKN050
     FM060100 07011KT P6SM SCT045 BKN250
     FM060600 04008KT P6SM SCT050 BKN250
     FM061700 VRB06KT P6SM FEW050 SCT250=

USA.gov is the U.S. government's official web portal to all federal, state and local government web resources and services.